Time;durP1;ratioP1;P1;durP2;ratioP2;P2;SDS_P1;SDS_P2;PMS_P1;PMS_P2;Temp;Humidity;BMP_temperature;BMP_pressure;BME280_temperature;BME280_humidity;BME280_pressure;Samples;Min_cycle;Max_cycle;Signal;HPM_P1;HPM_P2
2023/01/31 00:01:06;;;;;;;15.57;3.93;;;;;;;;;;5035137;28;20218;-60
2023/01/31 00:03:33;;;;;;;11.03;4.30;;;;;;;;;;5032489;28;20211;-59
2023/01/31 00:06:09;;;;;;;11.20;3.80;;;;;;;;;;5027883;28;20196;-59
2023/01/31 00:08:38;;;;;;;11.50;3.90;;;;;;;;;;5029249;28;20195;-57
2023/01/31 00:11:05;;;;;;;11.23;3.87;;;;;;;;;;5035209;28;20229;-59
2023/01/31 00:13:32;;;;;;;17.10;4.70;;;;;;;;;;5027027;28;20228;-56
2023/01/31 00:16:00;;;;;;;14.17;4.40;;;;;;;;;;5033188;28;20467;-57
2023/01/31 00:18:27;;;;;;;12.23;4.43;;;;;;;;;;5038959;28;20522;-57
2023/01/31 00:20:54;;;;;;;16.80;4.40;;;;;;;;;;5037976;28;20424;-55
2023/01/31 00:23:21;;;;;;;17.30;3.90;;;;;;;;;;5025969;28;20282;-60
2023/01/31 00:25:50;;;;;;;10.47;3.73;;;;;;;;;;5033464;28;20290;-58
2023/01/31 00:28:17;;;;;;;13.70;3.70;;;;;;;;;;5031239;28;20440;-58
2023/01/31 00:30:44;;;;;;;11.70;3.63;;;;;;;;;;5027955;28;20487;-57
2023/01/31 00:33:11;;;;;;;14.30;3.67;;;;;;;;;;5029822;28;20203;-57
2023/01/31 00:35:39;;;;;;;12.13;4.10;;;;;;;;;;5030827;28;20311;-58
2023/01/31 00:38:06;;;;;;;13.97;4.20;;;;;;;;;;5033024;28;20218;-59
2023/01/31 00:40:34;;;;;;;9.93;4.10;;;;;;;;;;5031270;28;20203;-56
2023/01/31 00:43:03;;;;;;;16.23;4.13;;;;;;;;;;5032730;28;20207;-59
2023/01/31 00:45:30;;;;;;;15.30;4.60;;;;;;;;;;5028769;28;20550;-59
2023/01/31 00:47:57;;;;;;;10.07;3.90;;;;;;;;;;5027960;28;20196;-59
2023/01/31 00:50:27;;;;;;;15.07;4.13;;;;;;;;;;5027302;28;20224;-59
2023/01/31 00:52:54;;;;;;;15.10;3.90;;;;;;;;;;5033044;28;20196;-57
2023/01/31 00:55:21;;;;;;;12.13;3.73;;;;;;;;;;5034515;28;20414;-59
2023/01/31 00:57:48;;;;;;;12.43;3.73;;;;;;;;;;5034964;28;20191;-57
2023/01/31 01:00:20;;;;;;;21.13;4.93;;;;;;;;;;5032186;28;20204;-60
2023/01/31 01:02:47;;;;;;;15.90;4.10;;;;;;;;;;5030738;28;20191;-58
2023/01/31 01:05:14;;;;;;;9.70;3.77;;;;;;;;;;5028085;28;20222;-59
2023/01/31 01:07:41;;;;;;;11.40;4.20;;;;;;;;;;5028707;28;20204;-59
2023/01/31 01:10:09;;;;;;;14.37;4.27;;;;;;;;;;5036405;28;20208;-59
2023/01/31 01:12:36;;;;;;;12.60;4.37;;;;;;;;;;5025797;28;20208;-60
2023/01/31 01:15:03;;;;;;;15.63;4.30;;;;;;;;;;5031473;28;20239;-59
2023/01/31 01:17:32;;;;;;;16.20;4.03;;;;;;;;;;5029075;28;20442;-57
2023/01/31 01:20:02;;;;;;;15.87;4.10;;;;;;;;;;5029186;28;20245;-56
2023/01/31 01:22:29;;;;;;;15.67;4.37;;;;;;;;;;5030215;28;20203;-58
2023/01/31 01:24:56;;;;;;;15.90;4.40;;;;;;;;;;5028265;28;20195;-60
2023/01/31 01:27:24;;;;;;;16.87;4.57;;;;;;;;;;5027395;28;20409;-58
2023/01/31 01:29:51;;;;;;;15.87;4.97;;;;;;;;;;5033244;28;20495;-58
2023/01/31 01:32:18;;;;;;;14.07;4.70;;;;;;;;;;5035362;28;20208;-60
2023/01/31 01:34:47;;;;;;;17.47;5.33;;;;;;;;;;5032163;28;20207;-55
2023/01/31 01:37:18;;;;;;;13.33;4.67;;;;;;;;;;5037144;28;20223;-59
2023/01/31 01:39:46;;;;;;;20.10;4.93;;;;;;;;;;5039642;28;20199;-57
2023/01/31 01:42:15;;;;;;;16.57;4.83;;;;;;;;;;5035102;28;20291;-58
2023/01/31 01:44:49;;;;;;;17.00;4.77;;;;;;;;;;5037983;28;20199;-57
2023/01/31 01:47:19;;;;;;;13.83;5.13;;;;;;;;;;5035108;28;20203;-58
2023/01/31 01:49:50;;;;;;;13.17;4.47;;;;;;;;;;5037609;28;20211;-59
2023/01/31 01:52:17;;;;;;;12.83;4.80;;;;;;;;;;5033742;28;20307;-58
2023/01/31 01:54:46;;;;;;;13.57;5.07;;;;;;;;;;5029467;28;20217;-58
2023/01/31 01:57:16;;;;;;;13.80;5.27;;;;;;;;;;5037758;28;20231;-59
2023/01/31 01:59:45;;;;;;;17.57;5.20;;;;;;;;;;5036877;28;20199;-59
2023/01/31 02:02:13;;;;;;;18.70;5.63;;;;;;;;;;5030403;28;20215;-58
2023/01/31 02:04:41;;;;;;;20.27;5.37;;;;;;;;;;5038492;28;20204;-57
2023/01/31 02:07:10;;;;;;;17.10;5.70;;;;;;;;;;5035264;28;20480;-59
2023/01/31 02:09:43;;;;;;;19.10;5.60;;;;;;;;;;5034555;28;20208;-55
2023/01/31 02:12:10;;;;;;;15.67;5.80;;;;;;;;;;5035340;28;20214;-59
2023/01/31 02:14:38;;;;;;;15.90;5.60;;;;;;;;;;5036929;28;20230;-55
2023/01/31 02:17:05;;;;;;;19.47;5.60;;;;;;;;;;5033848;28;20336;-59
2023/01/31 02:19:36;;;;;;;19.13;6.37;;;;;;;;;;5033404;28;20585;-60
2023/01/31 02:22:13;;;;;;;17.47;5.50;;;;;;;;;;5037132;28;20287;-56
2023/01/31 02:25:01;;;;;;;13.37;6.03;;;;;;;;;;5037437;28;20210;-56
2023/01/31 02:27:47;;;;;;;16.43;5.90;;;;;;;;;;5033655;28;20231;-60
2023/01/31 02:30:28;;;;;;;19.43;5.97;;;;;;;;;;5030760;28;20488;-58
2023/01/31 02:33:03;;;;;;;18.87;6.20;;;;;;;;;;5034631;28;20223;-59
2023/01/31 02:35:37;;;;;;;17.37;6.07;;;;;;;;;;5035134;28;20238;-59
2023/01/31 02:38:09;;;;;;;17.40;6.47;;;;;;;;;;5029658;28;20234;-58
2023/01/31 02:40:41;;;;;;;17.83;5.93;;;;;;;;;;5032596;28;20497;-59
2023/01/31 02:43:12;;;;;;;20.23;7.00;;;;;;;;;;5033238;28;20227;-58
2023/01/31 02:45:41;;;;;;;17.60;6.00;;;;;;;;;;5033777;28;20230;-58
2023/01/31 02:48:16;;;;;;;15.83;5.73;;;;;;;;;;5034788;28;20196;-57
2023/01/31 02:50:45;;;;;;;18.27;6.57;;;;;;;;;;5035767;28;20203;-58
2023/01/31 02:53:15;;;;;;;18.90;6.83;;;;;;;;;;5032536;28;20219;-60
2023/01/31 02:58:33;;;;;;;15.20;5.93;;;;;;;;;;5035424;28;20202;-60
2023/01/31 03:01:03;;;;;;;21.93;6.93;;;;;;;;;;5033070;28;20230;-56
2023/01/31 03:03:34;;;;;;;19.33;6.70;;;;;;;;;;5030736;28;20208;-57
2023/01/31 03:06:13;;;;;;;24.43;7.20;;;;;;;;;;5035581;28;20199;-58
2023/01/31 03:08:42;;;;;;;19.43;7.47;;;;;;;;;;5030690;28;20231;-59
2023/01/31 03:11:10;;;;;;;20.60;7.43;;;;;;;;;;5030162;28;20512;-58
2023/01/31 03:13:45;;;;;;;16.23;6.27;;;;;;;;;;5035061;28;20257;-60
2023/01/31 03:19:12;;;;;;;16.97;7.33;;;;;;;;;;5035695;28;20226;-60
2023/01/31 03:21:42;;;;;;;17.60;7.57;;;;;;;;;;5039599;28;20550;-60
2023/01/31 03:24:10;;;;;;;22.77;7.20;;;;;;;;;;5034498;28;20294;-59
2023/01/31 03:26:37;;;;;;;24.30;8.07;;;;;;;;;;5036046;28;20259;-60
2023/01/31 03:29:06;;;;;;;24.60;7.97;;;;;;;;;;5033672;28;20451;-59
2023/01/31 03:31:36;;;;;;;19.10;7.80;;;;;;;;;;5034761;28;20203;-56
2023/01/31 03:34:06;;;;;;;19.67;8.50;;;;;;;;;;5037091;28;20355;-57
2023/01/31 03:36:36;;;;;;;24.10;9.03;;;;;;;;;;5036904;28;20227;-58
2023/01/31 03:39:10;;;;;;;25.23;8.97;;;;;;;;;;5035944;28;20496;-60
2023/01/31 03:41:43;;;;;;;22.27;8.63;;;;;;;;;;5030596;28;20212;-54
2023/01/31 03:44:12;;;;;;;21.30;9.93;;;;;;;;;;5033975;28;20202;-59
2023/01/31 03:46:44;;;;;;;21.60;8.97;;;;;;;;;;5035498;28;20196;-61
2023/01/31 03:49:14;;;;;;;24.70;9.40;;;;;;;;;;5031187;28;20187;-59
2023/01/31 03:51:43;;;;;;;26.63;9.20;;;;;;;;;;5037115;28;20235;-58
2023/01/31 03:54:14;;;;;;;21.70;8.60;;;;;;;;;;5031746;28;20199;-60
2023/01/31 03:56:42;;;;;;;24.90;9.07;;;;;;;;;;5037195;28;20237;-60
2023/01/31 03:59:12;;;;;;;26.40;9.23;;;;;;;;;;5030867;28;20287;-59
2023/01/31 04:01:42;;;;;;;24.73;9.00;;;;;;;;;;5031234;28;20207;-60
2023/01/31 04:04:11;;;;;;;20.50;8.10;;;;;;;;;;5036826;28;20204;-59
2023/01/31 04:06:40;;;;;;;21.57;8.70;;;;;;;;;;5030184;28;20206;-60
2023/01/31 04:09:07;;;;;;;21.97;9.33;;;;;;;;;;5033614;28;20630;-58
2023/01/31 04:11:37;;;;;;;16.57;8.63;;;;;;;;;;5035854;28;20218;-59
2023/01/31 04:14:04;;;;;;;27.43;9.03;;;;;;;;;;5035306;28;20235;-60
2023/01/31 04:16:32;;;;;;;26.37;9.50;;;;;;;;;;5037240;28;20211;-60
2023/01/31 04:18:59;;;;;;;28.97;10.23;;;;;;;;;;5032105;28;20199;-60
2023/01/31 04:21:26;;;;;;;28.80;11.40;;;;;;;;;;5037385;28;20195;-59
2023/01/31 04:23:54;;;;;;;22.57;10.13;;;;;;;;;;5032726;28;20214;-58
2023/01/31 04:26:21;;;;;;;28.30;11.73;;;;;;;;;;5033695;28;20207;-60
2023/01/31 04:28:49;;;;;;;30.83;12.40;;;;;;;;;;5034656;28;20235;-60
2023/01/31 04:31:16;;;;;;;26.50;12.27;;;;;;;;;;5034787;28;20286;-60
2023/01/31 04:33:43;;;;;;;30.43;12.40;;;;;;;;;;5037138;28;20219;-60
2023/01/31 04:36:10;;;;;;;30.70;12.90;;;;;;;;;;5031168;28;20192;-59
2023/01/31 04:38:37;;;;;;;32.57;13.97;;;;;;;;;;5037259;28;20219;-60
2023/01/31 04:41:06;;;;;;;25.40;13.00;;;;;;;;;;5037588;28;20205;-59
2023/01/31 04:43:33;;;;;;;37.03;15.20;;;;;;;;;;5030608;28;20195;-59
2023/01/31 04:46:00;;;;;;;32.60;14.53;;;;;;;;;;5032424;28;20218;-60
2023/01/31 04:48:27;;;;;;;39.53;14.50;;;;;;;;;;5035753;28;20233;-60
2023/01/31 04:50:55;;;;;;;53.40;16.13;;;;;;;;;;5031795;28;20210;-57
2023/01/31 04:53:22;;;;;;;43.43;16.27;;;;;;;;;;5029991;28;20210;-58
2023/01/31 04:55:49;;;;;;;33.03;14.00;;;;;;;;;;5035639;28;20204;-60
2023/01/31 04:58:17;;;;;;;34.23;16.00;;;;;;;;;;5034072;28;20234;-60
2023/01/31 05:00:45;;;;;;;39.60;15.47;;;;;;;;;;5033059;28;20214;-60
2023/01/31 05:03:12;;;;;;;36.07;15.77;;;;;;;;;;5035654;28;20511;-60
2023/01/31 05:05:39;;;;;;;37.07;14.90;;;;;;;;;;5035476;28;20212;-60
2023/01/31 05:08:07;;;;;;;33.57;14.17;;;;;;;;;;5038399;28;20207;-59
2023/01/31 05:10:35;;;;;;;36.83;15.37;;;;;;;;;;5033445;28;20208;-60
2023/01/31 05:13:02;;;;;;;52.23;16.13;;;;;;;;;;5034786;28;20195;-57
2023/01/31 05:15:31;;;;;;;48.80;14.93;;;;;;;;;;5034658;28;20303;-58
2023/01/31 05:18:01;;;;;;;74.77;16.37;;;;;;;;;;5032494;28;20242;-61
2023/01/31 05:20:29;;;;;;;41.10;15.73;;;;;;;;;;5033912;28;20208;-56
2023/01/31 05:22:57;;;;;;;59.97;16.00;;;;;;;;;;5032056;28;20199;-59
2023/01/31 05:25:24;;;;;;;40.83;15.30;;;;;;;;;;5024269;28;20435;-58
2023/01/31 05:27:51;;;;;;;47.20;16.17;;;;;;;;;;5032431;28;20202;-59
2023/01/31 05:30:19;;;;;;;56.03;16.37;;;;;;;;;;5032183;28;20213;-59
2023/01/31 05:32:48;;;;;;;57.93;16.73;;;;;;;;;;5029362;28;20274;-61
2023/01/31 05:35:15;;;;;;;49.13;16.33;;;;;;;;;;5038563;28;20199;-59
2023/01/31 05:37:44;;;;;;;52.30;16.00;;;;;;;;;;5030594;28;20219;-59
2023/01/31 05:40:12;;;;;;;64.10;17.47;;;;;;;;;;5032993;28;20487;-59
2023/01/31 05:42:39;;;;;;;44.17;14.77;;;;;;;;;;5028672;28;20214;-57
2023/01/31 05:45:08;;;;;;;55.23;17.20;;;;;;;;;;5033333;28;20203;-60
2023/01/31 05:47:35;;;;;;;76.60;16.50;;;;;;;;;;5030756;28;20404;-58
2023/01/31 05:50:03;;;;;;;72.67;16.60;;;;;;;;;;5032674;28;20196;-59
2023/01/31 05:52:30;;;;;;;60.53;15.87;;;;;;;;;;5031604;28;20323;-58
2023/01/31 05:54:58;;;;;;;29.30;12.97;;;;;;;;;;5032183;28;20200;-59
2023/01/31 05:57:25;;;;;;;52.73;15.53;;;;;;;;;;5035588;28;20339;-60
2023/01/31 05:59:52;;;;;;;103.50;16.43;;;;;;;;;;5031905;28;20214;-60
2023/01/31 06:02:19;;;;;;;79.60;15.67;;;;;;;;;;5029769;28;20195;-60
2023/01/31 06:04:46;;;;;;;50.17;15.30;;;;;;;;;;5031331;28;20203;-59
2023/01/31 06:07:15;;;;;;;80.07;15.40;;;;;;;;;;5033893;28;20194;-59
2023/01/31 06:09:42;;;;;;;56.13;14.67;;;;;;;;;;5030535;28;20212;-60
2023/01/31 06:12:12;;;;;;;43.07;14.10;;;;;;;;;;5033393;28;20291;-59
2023/01/31 06:14:40;;;;;;;88.70;16.40;;;;;;;;;;5030807;28;20243;-59
2023/01/31 06:17:07;;;;;;;57.60;14.93;;;;;;;;;;5033631;28;20208;-60
2023/01/31 06:19:34;;;;;;;45.40;13.50;;;;;;;;;;5032132;28;20210;-59
2023/01/31 06:22:01;;;;;;;43.87;13.60;;;;;;;;;;5035836;28;20229;-59
2023/01/31 06:24:29;;;;;;;147.67;17.73;;;;;;;;;;5035221;28;20271;-59
2023/01/31 06:26:57;;;;;;;75.57;15.60;;;;;;;;;;5038073;28;20202;-59
2023/01/31 06:29:24;;;;;;;174.20;20.43;;;;;;;;;;5037750;28;20203;-59
2023/01/31 06:31:52;;;;;;;281.77;22.43;;;;;;;;;;5036059;28;20468;-59
2023/01/31 06:34:19;;;;;;;158.40;17.37;;;;;;;;;;5043147;28;20381;-59
2023/01/31 06:36:47;;;;;;;250.57;20.90;;;;;;;;;;5034656;28;20214;-57
2023/01/31 06:39:14;;;;;;;197.03;19.57;;;;;;;;;;5040015;28;20235;-58
2023/01/31 06:41:43;;;;;;;205.83;20.77;;;;;;;;;;5032382;28;20214;-58
2023/01/31 06:44:10;;;;;;;131.40;17.20;;;;;;;;;;5035653;22;20231;-81
2023/01/31 06:46:38;;;;;;;98.13;16.20;;;;;;;;;;5013465;28;20210;-81
2023/01/31 06:49:05;;;;;;;55.67;12.83;;;;;;;;;;5007515;28;20213;-81
2023/01/31 06:51:32;;;;;;;119.57;13.13;;;;;;;;;;5015344;28;20291;-80
2023/01/31 06:54:00;;;;;;;164.53;16.43;;;;;;;;;;5020181;28;20200;-81
2023/01/31 06:56:27;;;;;;;257.60;19.90;;;;;;;;;;5012777;28;20204;-81
2023/01/31 06:58:56;;;;;;;456.93;24.47;;;;;;;;;;5011441;28;20230;-81
2023/01/31 07:01:23;;;;;;;218.23;18.37;;;;;;;;;;5009570;28;20197;-81
2023/01/31 07:03:50;;;;;;;451.10;24.33;;;;;;;;;;5011334;28;20208;-81
2023/01/31 07:06:19;;;;;;;338.67;20.93;;;;;;;;;;5013475;28;20200;-81
2023/01/31 07:08:46;;;;;;;171.53;16.70;;;;;;;;;;5012673;28;20220;-81
2023/01/31 07:11:13;;;;;;;313.70;19.70;;;;;;;;;;5014015;28;20208;-81
2023/01/31 07:13:41;;;;;;;148.83;16.37;;;;;;;;;;5017057;28;20204;-81
2023/01/31 07:16:10;;;;;;;229.80;16.73;;;;;;;;;;5016840;28;20200;-81
2023/01/31 07:18:37;;;;;;;141.60;14.57;;;;;;;;;;5009033;28;20224;-81
2023/01/31 07:21:05;;;;;;;200.67;16.03;;;;;;;;;;5009960;28;20200;-81
2023/01/31 07:23:32;;;;;;;180.27;15.87;;;;;;;;;;5009600;28;20204;-81
2023/01/31 07:26:01;;;;;;;137.83;14.60;;;;;;;;;;5011523;28;20330;-81
2023/01/31 07:28:28;;;;;;;136.03;12.63;;;;;;;;;;5014357;28;20220;-81
2023/01/31 07:30:55;;;;;;;68.03;10.63;;;;;;;;;;5013945;28;20204;-81
2023/01/31 07:33:23;;;;;;;205.73;15.73;;;;;;;;;;5011078;28;20200;-81
2023/01/31 07:35:51;;;;;;;97.00;12.67;;;;;;;;;;5012953;28;20216;-81
2023/01/31 07:38:18;;;;;;;61.97;11.00;;;;;;;;;;5011383;28;20227;-81
2023/01/31 07:40:45;;;;;;;131.30;12.13;;;;;;;;;;5011574;28;20291;-81
2023/01/31 07:43:12;;;;;;;130.43;14.27;;;;;;;;;;5012692;28;20323;-81
2023/01/31 07:45:41;;;;;;;115.20;14.07;;;;;;;;;;5012709;28;20303;-81
2023/01/31 07:48:08;;;;;;;145.57;14.13;;;;;;;;;;5015157;28;20232;-81
2023/01/31 07:50:37;;;;;;;191.77;15.83;;;;;;;;;;5017911;28;20212;-81
2023/01/31 07:53:04;;;;;;;148.50;15.50;;;;;;;;;;5005369;28;20295;-81
2023/01/31 07:55:31;;;;;;;136.40;14.90;;;;;;;;;;5011733;28;20197;-81
2023/01/31 07:57:59;;;;;;;144.73;14.63;;;;;;;;;;5013531;28;20319;-81
2023/01/31 08:03:33;;;;;;;220.07;17.47;;;;;;;;;;5011549;28;20211;-81
2023/01/31 08:06:03;;;;;;;134.43;11.83;;;;;;;;;;5010236;28;20269;-81
2023/01/31 08:08:30;;;;;;;131.27;15.00;;;;;;;;;;5007614;28;20215;-81
2023/01/31 08:10:57;;;;;;;202.70;16.77;;;;;;;;;;5015209;28;20214;-81
2023/01/31 08:13:25;;;;;;;198.97;16.07;;;;;;;;;;5011996;28;20214;-81
2023/01/31 08:15:53;;;;;;;286.07;17.40;;;;;;;;;;5011979;28;20196;-81
2023/01/31 08:18:20;;;;;;;225.27;16.90;;;;;;;;;;5012667;28;20323;-81
2023/01/31 08:20:50;;;;;;;158.07;16.40;;;;;;;;;;5011790;28;20200;-81
2023/01/31 08:23:18;;;;;;;174.93;15.17;;;;;;;;;;5017957;28;20291;-81
2023/01/31 08:25:46;;;;;;;187.10;15.20;;;;;;;;;;5010018;28;20204;-81
2023/01/31 08:28:14;;;;;;;76.57;12.33;;;;;;;;;;5013856;28;20203;-81
2023/01/31 08:30:41;;;;;;;159.63;15.03;;;;;;;;;;5017252;28;20227;-81
2023/01/31 08:33:09;;;;;;;147.50;15.40;;;;;;;;;;5007565;28;20300;-81
2023/01/31 08:35:38;;;;;;;141.90;15.17;;;;;;;;;;5011820;28;20283;-81
2023/01/31 08:38:06;;;;;;;119.47;13.57;;;;;;;;;;5011858;28;20315;-81
2023/01/31 08:40:37;;;;;;;77.20;12.30;;;;;;;;;;5015141;28;20208;-81
2023/01/31 08:43:07;;;;;;;75.57;12.43;;;;;;;;;;5011189;28;20236;-81
2023/01/31 08:45:34;;;;;;;111.03;13.23;;;;;;;;;;5012585;28;20208;-81
2023/01/31 08:48:03;;;;;;;90.93;11.70;;;;;;;;;;5005765;28;20299;-81
2023/01/31 08:50:32;;;;;;;84.33;11.37;;;;;;;;;;5011229;28;20439;-81
2023/01/31 08:53:00;;;;;;;44.23;10.60;;;;;;;;;;5015043;28;20204;-81
2023/01/31 08:55:28;;;;;;;46.73;9.40;;;;;;;;;;5012749;28;20218;-81
2023/01/31 08:57:57;;;;;;;50.03;9.27;;;;;;;;;;5014226;28;20315;-81
2023/01/31 09:00:24;;;;;;;25.83;11.00;;;;;;;;;;5010809;28;20205;-81
2023/01/31 09:02:52;;;;;;;29.60;9.90;;;;;;;;;;5012872;28;20458;-81
2023/01/31 09:05:22;;;;;;;24.67;8.40;;;;;;;;;;5012848;28;20208;-81
2023/01/31 09:07:49;;;;;;;19.60;8.57;;;;;;;;;;5008996;28;20205;-81
2023/01/31 09:10:16;;;;;;;13.47;7.50;;;;;;;;;;5005438;28;20294;-81
2023/01/31 09:12:43;;;;;;;19.37;8.63;;;;;;;;;;5013531;28;20195;-81
2023/01/31 09:15:12;;;;;;;16.83;8.47;;;;;;;;;;5008889;28;20307;-81
2023/01/31 09:17:40;;;;;;;13.57;7.93;;;;;;;;;;5011390;28;20275;-81
2023/01/31 09:20:10;;;;;;;13.37;7.77;;;;;;;;;;5009279;28;20242;-81
2023/01/31 09:22:38;;;;;;;18.87;8.00;;;;;;;;;;5011566;28;20299;-81
2023/01/31 09:25:05;;;;;;;16.60;8.60;;;;;;;;;;5010692;28;20219;-81
2023/01/31 09:27:33;;;;;;;18.17;8.40;;;;;;;;;;5009522;28;20200;-81
2023/01/31 09:30:00;;;;;;;16.90;7.87;;;;;;;;;;5018033;28;20207;-81
2023/01/31 09:32:30;;;;;;;16.57;7.93;;;;;;;;;;5016286;28;20291;-81
2023/01/31 09:34:58;;;;;;;16.03;8.70;;;;;;;;;;5013638;28;20204;-81
2023/01/31 09:37:25;;;;;;;16.90;8.77;;;;;;;;;;5010436;28;20200;-81
2023/01/31 09:39:52;;;;;;;16.67;7.87;;;;;;;;;;5012006;28;20232;-81
2023/01/31 09:42:23;;;;;;;17.67;9.00;;;;;;;;;;5015324;28;20208;-81
2023/01/31 09:44:57;;;;;;;22.90;8.37;;;;;;;;;;5015949;28;20250;-80
2023/01/31 09:47:27;;;;;;;20.97;9.60;;;;;;;;;;5013120;28;20280;-81
2023/01/31 09:49:59;;;;;;;23.60;9.17;;;;;;;;;;5009463;28;20208;-81
2023/01/31 09:52:29;;;;;;;15.43;8.47;;;;;;;;;;5009978;28;20230;-82
2023/01/31 09:54:56;;;;;;;29.50;9.40;;;;;;;;;;5013314;28;20212;-81
2023/01/31 09:57:26;;;;;;;24.57;8.83;;;;;;;;;;5016494;28;20200;-81
2023/01/31 09:59:59;;;;;;;24.33;9.40;;;;;;;;;;5020998;28;20320;-81
2023/01/31 10:02:45;;;;;;;22.07;8.37;;;;;;;;;;5016950;28;20204;-81
2023/01/31 10:05:20;;;;;;;15.80;8.37;;;;;;;;;;5014829;28;20520;-81
2023/01/31 10:07:50;;;;;;;19.07;8.43;;;;;;;;;;5018156;28;20196;-81
2023/01/31 10:10:23;;;;;;;38.93;9.87;;;;;;;;;;5018817;28;20220;-81
2023/01/31 10:12:54;;;;;;;53.10;9.87;;;;;;;;;;5019980;28;20204;-81
2023/01/31 10:15:28;;;;;;;34.67;9.53;;;;;;;;;;5016344;28;20208;-81
2023/01/31 10:17:59;;;;;;;48.27;10.37;;;;;;;;;;5010674;28;20226;-81
2023/01/31 10:20:33;;;;;;;48.27;10.80;;;;;;;;;;5016913;28;20228;-81
2023/01/31 10:23:03;;;;;;;31.70;9.90;;;;;;;;;;5018198;28;20255;-81
2023/01/31 10:25:34;;;;;;;53.20;10.33;;;;;;;;;;5014561;28;20204;-81
2023/01/31 10:28:04;;;;;;;22.70;9.17;;;;;;;;;;5015282;28;20274;-81
2023/01/31 10:30:37;;;;;;;63.90;11.50;;;;;;;;;;5010492;28;20287;-81
2023/01/31 10:33:09;;;;;;;37.70;9.80;;;;;;;;;;5013159;28;20216;-81
2023/01/31 10:35:41;;;;;;;59.67;11.00;;;;;;;;;;5014613;28;20201;-81
2023/01/31 10:38:14;;;;;;;55.17;11.87;;;;;;;;;;5025365;28;20216;-81
2023/01/31 10:40:49;;;;;;;65.90;11.13;;;;;;;;;;5019554;28;20235;-81
2023/01/31 10:43:19;;;;;;;63.50;12.47;;;;;;;;;;5015227;28;20238;-81
2023/01/31 10:45:46;;;;;;;33.77;11.30;;;;;;;;;;5016969;28;20219;-81
2023/01/31 10:48:18;;;;;;;51.87;12.50;;;;;;;;;;5013483;28;20209;-81
2023/01/31 10:50:55;;;;;;;95.67;14.77;;;;;;;;;;5015728;28;20196;-81
2023/01/31 10:53:32;;;;;;;68.43;13.73;;;;;;;;;;5011423;28;20426;-81
2023/01/31 10:56:03;;;;;;;63.27;13.60;;;;;;;;;;5012183;28;20207;-81
2023/01/31 10:58:30;;;;;;;40.53;13.40;;;;;;;;;;5017723;28;20207;-81
2023/01/31 11:00:58;;;;;;;39.77;13.97;;;;;;;;;;5016746;28;20234;-81
2023/01/31 11:03:26;;;;;;;52.33;13.30;;;;;;;;;;5012304;28;20212;-81
2023/01/31 11:05:56;;;;;;;49.30;16.60;;;;;;;;;;5010076;28;20205;-81
2023/01/31 11:08:30;;;;;;;33.80;13.67;;;;;;;;;;5016085;28;20304;-81
2023/01/31 11:10:57;;;;;;;39.97;14.60;;;;;;;;;;5010732;28;20415;-81
2023/01/31 11:13:25;;;;;;;48.60;14.33;;;;;;;;;;5013762;28;20211;-81
2023/01/31 11:15:54;;;;;;;30.83;13.20;;;;;;;;;;5009629;28;20252;-81
2023/01/31 11:18:28;;;;;;;39.23;14.70;;;;;;;;;;5007455;28;20197;-81
2023/01/31 11:20:57;;;;;;;46.57;13.97;;;;;;;;;;5010369;28;20229;-82
2023/01/31 11:23:25;;;;;;;32.20;13.90;;;;;;;;;;5010489;28;20211;-82
2023/01/31 11:25:54;;;;;;;43.13;13.83;;;;;;;;;;5014038;28;20244;-82
2023/01/31 11:28:23;;;;;;;40.70;14.60;;;;;;;;;;5014223;28;20314;-82
2023/01/31 11:30:52;;;;;;;41.00;14.43;;;;;;;;;;5017483;28;20208;-82
2023/01/31 11:33:38;;;;;;;34.93;14.37;;;;;;;;;;5012738;28;20312;-82
2023/01/31 11:36:10;;;;;;;27.60;13.33;;;;;;;;;;5011885;28;20197;-82
2023/01/31 11:38:38;;;;;;;38.73;13.93;;;;;;;;;;5014794;28;20327;-82
2023/01/31 11:41:27;;;;;;;36.80;13.40;;;;;;;;;;5014705;28;20232;-82
2023/01/31 11:44:06;;;;;;;36.97;13.93;;;;;;;;;;5010053;28;20327;-82
2023/01/31 11:46:40;;;;;;;37.40;14.13;;;;;;;;;;5012420;28;20305;-82
2023/01/31 11:49:11;;;;;;;34.87;14.57;;;;;;;;;;5007297;28;20201;-82
2023/01/31 11:51:40;;;;;;;32.80;14.67;;;;;;;;;;5013064;28;20204;-82
2023/01/31 11:54:07;;;;;;;31.43;13.13;;;;;;;;;;5010664;28;20197;-82
2023/01/31 11:56:36;;;;;;;27.43;13.20;;;;;;;;;;5011827;28;20201;-82
2023/01/31 11:59:06;;;;;;;39.37;13.50;;;;;;;;;;5015931;28;20288;-82
2023/01/31 12:01:35;;;;;;;33.40;14.50;;;;;;;;;;5008007;28;20220;-82
2023/01/31 12:04:03;;;;;;;35.40;13.80;;;;;;;;;;5008606;28;20232;-82
2023/01/31 12:06:32;;;;;;;35.33;14.27;;;;;;;;;;5007069;28;20215;-82
2023/01/31 12:09:02;;;;;;;33.43;13.73;;;;;;;;;;5013821;28;20208;-82
2023/01/31 12:11:30;;;;;;;33.33;14.13;;;;;;;;;;5017309;28;20208;-82
2023/01/31 12:14:02;;;;;;;37.83;14.80;;;;;;;;;;5018275;28;20279;-82
2023/01/31 12:16:30;;;;;;;36.40;13.90;;;;;;;;;;5017712;28;20232;-82
2023/01/31 12:19:07;;;;;;;29.37;13.83;;;;;;;;;;5013823;28;20243;-82
2023/01/31 12:21:42;;;;;;;30.77;14.27;;;;;;;;;;5017376;28;20295;-82
2023/01/31 12:24:17;;;;;;;31.70;13.77;;;;;;;;;;5016402;28;20278;-82
2023/01/31 12:26:46;;;;;;;27.93;13.33;;;;;;;;;;5025237;28;20204;-82
2023/01/31 12:29:38;;;;;;;30.07;13.23;;;;;;;;;;5018781;28;20300;-82
2023/01/31 12:32:10;;;;;;;36.70;14.87;;;;;;;;;;5013547;28;20315;-82
2023/01/31 12:34:51;;;;;;;36.43;14.07;;;;;;;;;;5008441;28;20204;-82
2023/01/31 12:37:26;;;;;;;32.67;13.27;;;;;;;;;;5008146;28;20202;-82
2023/01/31 12:40:03;;;;;;;25.53;12.17;;;;;;;;;;5009186;28;20320;-81
2023/01/31 12:42:45;;;;;;;31.07;12.90;;;;;;;;;;5009657;28;20311;-81
2023/01/31 12:45:22;;;;;;;31.10;12.97;;;;;;;;;;5010470;28;20291;-82
2023/01/31 12:47:58;;;;;;;26.30;12.30;;;;;;;;;;5002581;28;20208;-81
2023/01/31 12:50:29;;;;;;;30.73;12.17;;;;;;;;;;5010825;28;20215;-82
2023/01/31 12:53:18;;;;;;;26.27;12.73;;;;;;;;;;5008280;28;20197;-82
2023/01/31 12:55:51;;;;;;;32.13;13.60;;;;;;;;;;4992820;28;20295;-82
2023/01/31 12:58:30;;;;;;;29.40;13.10;;;;;;;;;;5013663;28;20197;-82
2023/01/31 13:01:01;;;;;;;26.77;12.60;;;;;;;;;;5010684;28;20225;-82
2023/01/31 13:03:46;;;;;;;25.33;12.07;;;;;;;;;;5010239;28;20347;-82
2023/01/31 13:06:16;;;;;;;25.87;13.57;;;;;;;;;;5010608;28;20281;-82
2023/01/31 13:08:44;;;;;;;30.63;15.40;;;;;;;;;;5014098;28;20196;-82
2023/01/31 13:11:18;;;;;;;37.90;17.30;;;;;;;;;;5007429;28;20303;-81
2023/01/31 13:13:48;;;;;;;35.57;15.93;;;;;;;;;;5011505;28;20278;-82
2023/01/31 13:16:19;;;;;;;30.20;18.13;;;;;;;;;;5017088;28;20291;-81
2023/01/31 13:18:47;;;;;;;26.40;14.90;;;;;;;;;;5017400;28;20210;-81
2023/01/31 13:21:16;;;;;;;29.07;13.17;;;;;;;;;;5020865;28;20307;-82
2023/01/31 13:23:45;;;;;;;27.47;13.43;;;;;;;;;;5014457;28;20201;-82
2023/01/31 13:26:17;;;;;;;20.40;12.03;;;;;;;;;;5006495;28;20239;-81
2023/01/31 13:28:47;;;;;;;28.93;13.77;;;;;;;;;;5013651;28;20215;-82
2023/01/31 13:31:17;;;;;;;26.00;12.67;;;;;;;;;;5012066;28;20196;-81
2023/01/31 13:33:47;;;;;;;31.03;14.00;;;;;;;;;;5014411;28;20200;-81
2023/01/31 13:36:19;;;;;;;26.63;13.67;;;;;;;;;;5008678;28;20189;-81
2023/01/31 13:38:46;;;;;;;28.03;14.57;;;;;;;;;;5013360;28;20220;-82
2023/01/31 13:41:18;;;;;;;28.27;13.27;;;;;;;;;;5013601;28;20338;-81
2023/01/31 13:43:45;;;;;;;26.60;13.13;;;;;;;;;;5013692;28;20227;-82
2023/01/31 13:46:14;;;;;;;24.93;12.60;;;;;;;;;;5016551;28;20296;-82
2023/01/31 13:48:43;;;;;;;21.83;12.53;;;;;;;;;;5016320;28;20208;-82
2023/01/31 13:51:16;;;;;;;25.00;12.03;;;;;;;;;;5015034;28;20268;-82
2023/01/31 13:53:46;;;;;;;25.63;12.63;;;;;;;;;;5019902;28;20223;-83
2023/01/31 13:56:18;;;;;;;25.43;12.93;;;;;;;;;;5018059;28;20295;-82
2023/01/31 13:58:48;;;;;;;22.93;12.37;;;;;;;;;;5026081;28;20235;-82
2023/01/31 14:01:17;;;;;;;20.53;11.17;;;;;;;;;;5025222;28;20232;-82
2023/01/31 14:04:03;;;;;;;23.07;10.70;;;;;;;;;;5023151;28;20204;-82
2023/01/31 14:06:45;;;;;;;17.00;10.03;;;;;;;;;;5023876;28;20207;-80
2023/01/31 14:09:22;;;;;;;18.13;10.20;;;;;;;;;;5018341;28;20209;-81
2023/01/31 14:11:51;;;;;;;17.90;10.20;;;;;;;;;;5017598;28;20209;-82
2023/01/31 14:14:20;;;;;;;16.87;9.87;;;;;;;;;;5024736;28;20207;-82
2023/01/31 14:16:49;;;;;;;13.90;9.23;;;;;;;;;;5023112;28;20245;-84
2023/01/31 14:19:53;;;;;;;15.17;9.30;;;;;;;;;;5028585;28;20240;-83
2023/01/31 14:22:23;;;;;;;12.13;8.43;;;;;;;;;;5020741;28;20208;-83
2023/01/31 14:24:59;;;;;;;16.77;8.77;;;;;;;;;;5028253;28;20212;-83
2023/01/31 14:27:29;;;;;;;18.00;9.07;;;;;;;;;;5026393;28;20287;-84
2023/01/31 14:29:58;;;;;;;11.37;8.63;;;;;;;;;;5015099;28;20212;-82
2023/01/31 14:32:30;;;;;;;13.30;8.60;;;;;;;;;;5020273;28;20212;-85
2023/01/31 14:34:57;;;;;;;13.93;9.07;;;;;;;;;;5021417;28;20201;-84
2023/01/31 14:37:32;;;;;;;12.47;7.53;;;;;;;;;;5027243;28;20200;-84
2023/01/31 14:40:08;;;;;;;15.50;7.67;;;;;;;;;;5019436;28;20234;-84
2023/01/31 14:42:59;;;;;;;15.03;8.83;;;;;;;;;;5023812;28;20199;-84
2023/01/31 14:45:32;;;;;;;11.83;8.27;;;;;;;;;;5021396;28;20212;-84